sensor_id;sensor_type;location;lat;lon;timestamp;P1;durP1;ratioP1;P2;durP2;ratioP2
63032;SDS011;49121;38.932;-9.018;2023-03-01T00:00:25;10.95;;;2.78;;
63032;SDS011;49121;38.932;-9.018;2023-03-01T00:02:26;7.72;;;3.47;;
63032;SDS011;49121;38.932;-9.018;2023-03-01T00:04:26;7.22;;;3.05;;
63032;SDS011;49121;38.932;-9.018;2023-03-01T00:08:28;10.70;;;3.10;;
63032;SDS011;49121;38.932;-9.018;2023-03-01T00:10:30;8.30;;;2.40;;
63032;SDS011;49121;38.932;-9.018;2023-03-01T00:12:31;6.90;;;3.33;;
63032;SDS011;49121;38.932;-9.018;2023-03-01T00:16:33;11.33;;;4.43;;
63032;SDS011;49121;38.932;-9.018;2023-03-01T00:18:36;7.65;;;3.03;;
63032;SDS011;49121;38.932;-9.018;2023-03-01T00:20:36;12.77;;;2.97;;
63032;SDS011;49121;38.932;-9.018;2023-03-01T00:22:37;6.38;;;2.75;;
63032;SDS011;49121;38.932;-9.018;2023-03-01T00:24:37;9.07;;;3.33;;
63032;SDS011;49121;38.932;-9.018;2023-03-01T00:26:38;13.05;;;3.50;;
63032;SDS011;49121;38.932;-9.018;2023-03-01T00:28:39;11.38;;;3.33;;
63032;SDS011;49121;38.932;-9.018;2023-03-01T00:30:43;10.23;;;3.40;;
63032;SDS011;49121;38.932;-9.018;2023-03-01T00:32:44;13.45;;;3.45;;
63032;SDS011;49121;38.932;-9.018;2023-03-01T00:34:45;13.60;;;3.67;;
63032;SDS011;49121;38.932;-9.018;2023-03-01T00:36:54;8.55;;;2.97;;
63032;SDS011;49121;38.932;-9.018;2023-03-01T00:38:54;8.80;;;3.13;;
63032;SDS011;49121;38.932;-9.018;2023-03-01T00:40:56;8.57;;;2.83;;
63032;SDS011;49121;38.932;-9.018;2023-03-01T00:43:04;6.25;;;2.83;;
63032;SDS011;49121;38.932;-9.018;2023-03-01T00:45:05;4.78;;;2.03;;
63032;SDS011;49121;38.932;-9.018;2023-03-01T00:47:06;6.40;;;2.97;;
63032;SDS011;49121;38.932;-9.018;2023-03-01T00:49:06;6.45;;;2.70;;
63032;SDS011;49121;38.932;-9.018;2023-03-01T00:51:28;8.18;;;3.08;;
63032;SDS011;49121;38.932;-9.018;2023-03-01T00:53:30;6.93;;;2.80;;
63032;SDS011;49121;38.932;-9.018;2023-03-01T00:55:31;9.82;;;3.08;;
63032;SDS011;49121;38.932;-9.018;2023-03-01T00:57:31;5.38;;;2.50;;
63032;SDS011;49121;38.932;-9.018;2023-03-01T00:59:33;7.43;;;2.95;;
63032;SDS011;49121;38.932;-9.018;2023-03-01T01:01:53;7.20;;;2.95;;
63032;SDS011;49121;38.932;-9.018;2023-03-01T01:03:57;7.85;;;2.55;;
63032;SDS011;49121;38.932;-9.018;2023-03-01T01:05:59;6.82;;;2.55;;
63032;SDS011;49121;38.932;-9.018;2023-03-01T01:08:05;8.70;;;3.00;;
63032;SDS011;49121;38.932;-9.018;2023-03-01T01:10:06;5.00;;;2.42;;
63032;SDS011;49121;38.932;-9.018;2023-03-01T01:12:07;6.80;;;2.83;;
63032;SDS011;49121;38.932;-9.018;2023-03-01T01:14:08;11.70;;;2.45;;
63032;SDS011;49121;38.932;-9.018;2023-03-01T01:16:09;5.38;;;2.70;;
63032;SDS011;49121;38.932;-9.018;2023-03-01T01:18:09;7.30;;;3.53;;
63032;SDS011;49121;38.932;-9.018;2023-03-01T01:20:10;6.95;;;2.58;;
63032;SDS011;49121;38.932;-9.018;2023-03-01T01:22:11;5.30;;;2.40;;
63032;SDS011;49121;38.932;-9.018;2023-03-01T01:24:12;5.07;;;2.72;;
63032;SDS011;49121;38.932;-9.018;2023-03-01T01:26:14;5.55;;;2.72;;
63032;SDS011;49121;38.932;-9.018;2023-03-01T01:28:41;9.88;;;2.35;;
63032;SDS011;49121;38.932;-9.018;2023-03-01T01:30:42;8.18;;;2.72;;
63032;SDS011;49121;38.932;-9.018;2023-03-01T01:32:42;12.82;;;3.45;;
63032;SDS011;49121;38.932;-9.018;2023-03-01T01:34:43;7.20;;;3.03;;
63032;SDS011;49121;38.932;-9.018;2023-03-01T01:36:44;16.17;;;3.42;;
63032;SDS011;49121;38.932;-9.018;2023-03-01T01:38:48;6.80;;;2.67;;
63032;SDS011;49121;38.932;-9.018;2023-03-01T01:40:50;10.27;;;3.10;;
63032;SDS011;49121;38.932;-9.018;2023-03-01T01:42:51;11.10;;;2.88;;
63032;SDS011;49121;38.932;-9.018;2023-03-01T01:47:30;6.65;;;2.92;;
63032;SDS011;49121;38.932;-9.018;2023-03-01T01:51:37;6.20;;;1.98;;
63032;SDS011;49121;38.932;-9.018;2023-03-01T01:53:40;6.38;;;3.22;;
63032;SDS011;49121;38.932;-9.018;2023-03-01T01:55:45;6.15;;;2.63;;
63032;SDS011;49121;38.932;-9.018;2023-03-01T01:57:52;7.95;;;3.05;;
63032;SDS011;49121;38.932;-9.018;2023-03-01T01:59:57;6.32;;;3.00;;
63032;SDS011;49121;38.932;-9.018;2023-03-01T02:02:01;5.75;;;2.90;;
63032;SDS011;49121;38.932;-9.018;2023-03-01T02:04:03;8.55;;;2.38;;
63032;SDS011;49121;38.932;-9.018;2023-03-01T02:06:07;9.38;;;3.05;;
63032;SDS011;49121;38.932;-9.018;2023-03-01T02:08:23;5.10;;;2.45;;
63032;SDS011;49121;38.932;-9.018;2023-03-01T02:10:27;5.45;;;2.20;;
63032;SDS011;49121;38.932;-9.018;2023-03-01T02:12:29;4.68;;;2.13;;
63032;SDS011;49121;38.932;-9.018;2023-03-01T02:14:30;6.30;;;2.53;;
63032;SDS011;49121;38.932;-9.018;2023-03-01T02:18:32;4.33;;;2.10;;
63032;SDS011;49121;38.932;-9.018;2023-03-01T02:20:39;5.45;;;2.13;;
63032;SDS011;49121;38.932;-9.018;2023-03-01T02:22:55;4.57;;;2.47;;
63032;SDS011;49121;38.932;-9.018;2023-03-01T02:27:21;7.13;;;2.83;;
63032;SDS011;49121;38.932;-9.018;2023-03-01T02:29:29;7.75;;;2.28;;
63032;SDS011;49121;38.932;-9.018;2023-03-01T02:31:30;6.88;;;2.67;;
63032;SDS011;49121;38.932;-9.018;2023-03-01T02:33:42;2.92;;;1.90;;
63032;SDS011;49121;38.932;-9.018;2023-03-01T02:35:45;7.10;;;2.55;;
63032;SDS011;49121;38.932;-9.018;2023-03-01T02:37:46;4.60;;;2.20;;
63032;SDS011;49121;38.932;-9.018;2023-03-01T02:39:48;7.38;;;2.38;;
63032;SDS011;49121;38.932;-9.018;2023-03-01T02:41:54;7.80;;;2.17;;
63032;SDS011;49121;38.932;-9.018;2023-03-01T02:43:57;5.90;;;2.00;;
63032;SDS011;49121;38.932;-9.018;2023-03-01T02:48:45;4.75;;;2.25;;
63032;SDS011;49121;38.932;-9.018;2023-03-01T02:55:11;3.72;;;2.55;;
63032;SDS011;49121;38.932;-9.018;2023-03-01T02:57:14;6.03;;;2.60;;
63032;SDS011;49121;38.932;-9.018;2023-03-01T02:59:18;5.60;;;2.40;;
63032;SDS011;49121;38.932;-9.018;2023-03-01T03:01:25;6.93;;;2.83;;
63032;SDS011;49121;38.932;-9.018;2023-03-01T03:03:38;7.88;;;2.88;;
63032;SDS011;49121;38.932;-9.018;2023-03-01T03:05:38;7.15;;;2.47;;
63032;SDS011;49121;38.932;-9.018;2023-03-01T03:07:41;6.45;;;2.85;;
63032;SDS011;49121;38.932;-9.018;2023-03-01T03:09:43;8.02;;;2.10;;
63032;SDS011;49121;38.932;-9.018;2023-03-01T03:11:44;5.90;;;2.08;;
63032;SDS011;49121;38.932;-9.018;2023-03-01T03:13:46;13.55;;;2.63;;
63032;SDS011;49121;38.932;-9.018;2023-03-01T03:15:49;8.70;;;3.17;;
63032;SDS011;49121;38.932;-9.018;2023-03-01T03:17:50;7.28;;;2.58;;
63032;SDS011;49121;38.932;-9.018;2023-03-01T03:19:52;7.07;;;2.53;;
63032;SDS011;49121;38.932;-9.018;2023-03-01T03:21:53;8.35;;;2.65;;
63032;SDS011;49121;38.932;-9.018;2023-03-01T03:23:53;9.45;;;3.35;;
63032;SDS011;49121;38.932;-9.018;2023-03-01T03:25:54;6.20;;;2.65;;
63032;SDS011;49121;38.932;-9.018;2023-03-01T03:27:54;9.25;;;2.47;;
63032;SDS011;49121;38.932;-9.018;2023-03-01T03:29:58;10.05;;;2.35;;
63032;SDS011;49121;38.932;-9.018;2023-03-01T03:31:59;8.60;;;2.50;;
63032;SDS011;49121;38.932;-9.018;2023-03-01T03:34:00;5.10;;;2.38;;
63032;SDS011;49121;38.932;-9.018;2023-03-01T03:36:00;5.22;;;2.50;;
63032;SDS011;49121;38.932;-9.018;2023-03-01T03:38:20;5.57;;;2.30;;
63032;SDS011;49121;38.932;-9.018;2023-03-01T03:40:42;5.00;;;2.45;;
63032;SDS011;49121;38.932;-9.018;2023-03-01T03:42:44;6.82;;;2.80;;
63032;SDS011;49121;38.932;-9.018;2023-03-01T03:44:45;3.47;;;2.13;;
63032;SDS011;49121;38.932;-9.018;2023-03-01T03:46:46;5.30;;;2.72;;
63032;SDS011;49121;38.932;-9.018;2023-03-01T03:48:46;8.40;;;2.72;;
63032;SDS011;49121;38.932;-9.018;2023-03-01T03:50:48;3.35;;;2.13;;
63032;SDS011;49121;38.932;-9.018;2023-03-01T03:52:50;5.53;;;2.72;;
63032;SDS011;49121;38.932;-9.018;2023-03-01T03:54:51;7.90;;;2.60;;
63032;SDS011;49121;38.932;-9.018;2023-03-01T03:56:51;7.80;;;2.90;;
63032;SDS011;49121;38.932;-9.018;2023-03-01T03:58:52;5.35;;;2.42;;
63032;SDS011;49121;38.932;-9.018;2023-03-01T04:00:54;13.13;;;3.42;;
63032;SDS011;49121;38.932;-9.018;2023-03-01T04:02:57;6.55;;;2.60;;
63032;SDS011;49121;38.932;-9.018;2023-03-01T04:04:57;8.77;;;3.67;;
63032;SDS011;49121;38.932;-9.018;2023-03-01T04:06:58;6.13;;;2.25;;
63032;SDS011;49121;38.932;-9.018;2023-03-01T04:08:59;6.35;;;2.50;;
63032;SDS011;49121;38.932;-9.018;2023-03-01T04:11:03;11.02;;;3.38;;
63032;SDS011;49121;38.932;-9.018;2023-03-01T04:13:24;13.98;;;3.25;;
63032;SDS011;49121;38.932;-9.018;2023-03-01T04:15:25;7.07;;;2.58;;
63032;SDS011;49121;38.932;-9.018;2023-03-01T04:17:27;5.28;;;2.83;;
63032;SDS011;49121;38.932;-9.018;2023-03-01T04:19:27;6.88;;;2.70;;
63032;SDS011;49121;38.932;-9.018;2023-03-01T04:21:28;4.75;;;2.40;;
63032;SDS011;49121;38.932;-9.018;2023-03-01T04:23:28;6.13;;;2.40;;
63032;SDS011;49121;38.932;-9.018;2023-03-01T04:25:29;7.00;;;2.10;;
63032;SDS011;49121;38.932;-9.018;2023-03-01T04:27:35;5.30;;;2.65;;
63032;SDS011;49121;38.932;-9.018;2023-03-01T04:29:36;5.57;;;2.28;;
63032;SDS011;49121;38.932;-9.018;2023-03-01T04:31:37;5.60;;;2.33;;
63032;SDS011;49121;38.932;-9.018;2023-03-01T04:33:38;7.95;;;2.35;;
63032;SDS011;49121;38.932;-9.018;2023-03-01T04:35:40;8.52;;;3.35;;
63032;SDS011;49121;38.932;-9.018;2023-03-01T04:37:41;6.50;;;2.58;;
63032;SDS011;49121;38.932;-9.018;2023-03-01T04:39:41;6.75;;;2.58;;
63032;SDS011;49121;38.932;-9.018;2023-03-01T04:41:45;8.32;;;2.92;;
63032;SDS011;49121;38.932;-9.018;2023-03-01T04:43:46;5.55;;;2.88;;
63032;SDS011;49121;38.932;-9.018;2023-03-01T04:45:46;3.22;;;2.28;;
63032;SDS011;49121;38.932;-9.018;2023-03-01T04:47:47;7.03;;;2.88;;
63032;SDS011;49121;38.932;-9.018;2023-03-01T04:49:48;6.10;;;2.60;;
63032;SDS011;49121;38.932;-9.018;2023-03-01T04:51:49;3.67;;;1.92;;
63032;SDS011;49121;38.932;-9.018;2023-03-01T04:53:49;7.78;;;2.53;;
63032;SDS011;49121;38.932;-9.018;2023-03-01T04:55:50;3.47;;;2.22;;
63032;SDS011;49121;38.932;-9.018;2023-03-01T04:57:51;5.43;;;2.30;;
63032;SDS011;49121;38.932;-9.018;2023-03-01T04:59:52;4.28;;;2.10;;
63032;SDS011;49121;38.932;-9.018;2023-03-01T05:01:54;5.68;;;2.17;;
63032;SDS011;49121;38.932;-9.018;2023-03-01T05:03:56;5.53;;;2.30;;
63032;SDS011;49121;38.932;-9.018;2023-03-01T05:06:02;6.63;;;2.70;;
63032;SDS011;49121;38.932;-9.018;2023-03-01T05:08:05;6.35;;;2.63;;
63032;SDS011;49121;38.932;-9.018;2023-03-01T05:10:08;2.80;;;1.80;;
63032;SDS011;49121;38.932;-9.018;2023-03-01T05:12:09;7.03;;;2.45;;
63032;SDS011;49121;38.932;-9.018;2023-03-01T05:14:10;4.32;;;2.60;;
63032;SDS011;49121;38.932;-9.018;2023-03-01T05:18:11;3.60;;;2.17;;
63032;SDS011;49121;38.932;-9.018;2023-03-01T05:20:12;3.63;;;1.95;;
63032;SDS011;49121;38.932;-9.018;2023-03-01T05:22:13;5.47;;;2.33;;
63032;SDS011;49121;38.932;-9.018;2023-03-01T05:24:13;5.25;;;2.20;;
63032;SDS011;49121;38.932;-9.018;2023-03-01T05:26:18;5.63;;;2.03;;
63032;SDS011;49121;38.932;-9.018;2023-03-01T05:28:21;3.53;;;2.15;;
63032;SDS011;49121;38.932;-9.018;2023-03-01T05:30:22;4.10;;;2.30;;
63032;SDS011;49121;38.932;-9.018;2023-03-01T05:32:23;6.80;;;2.38;;
63032;SDS011;49121;38.932;-9.018;2023-03-01T05:34:24;3.72;;;1.98;;
63032;SDS011;49121;38.932;-9.018;2023-03-01T05:36:25;6.35;;;2.38;;
63032;SDS011;49121;38.932;-9.018;2023-03-01T05:38:26;8.68;;;2.58;;
63032;SDS011;49121;38.932;-9.018;2023-03-01T05:40:26;5.40;;;2.40;;
63032;SDS011;49121;38.932;-9.018;2023-03-01T05:42:27;5.00;;;2.53;;
63032;SDS011;49121;38.932;-9.018;2023-03-01T05:44:28;4.30;;;2.58;;
63032;SDS011;49121;38.932;-9.018;2023-03-01T05:46:29;7.22;;;2.63;;
63032;SDS011;49121;38.932;-9.018;2023-03-01T05:48:30;4.38;;;2.45;;
63032;SDS011;49121;38.932;-9.018;2023-03-01T05:50:35;4.97;;;2.80;;
63032;SDS011;49121;38.932;-9.018;2023-03-01T05:52:39;5.85;;;2.58;;
63032;SDS011;49121;38.932;-9.018;2023-03-01T05:54:40;3.17;;;1.92;;
63032;SDS011;49121;38.932;-9.018;2023-03-01T05:56:41;6.07;;;1.92;;
63032;SDS011;49121;38.932;-9.018;2023-03-01T05:58:41;4.18;;;2.10;;
63032;SDS011;49121;38.932;-9.018;2023-03-01T06:00:43;5.50;;;2.33;;
63032;SDS011;49121;38.932;-9.018;2023-03-01T06:02:44;4.80;;;2.40;;
63032;SDS011;49121;38.932;-9.018;2023-03-01T06:04:49;4.63;;;1.92;;
63032;SDS011;49121;38.932;-9.018;2023-03-01T06:06:50;7.25;;;1.77;;
63032;SDS011;49121;38.932;-9.018;2023-03-01T06:08:51;6.47;;;2.45;;
63032;SDS011;49121;38.932;-9.018;2023-03-01T06:10:52;7.65;;;2.17;;
63032;SDS011;49121;38.932;-9.018;2023-03-01T06:14:54;4.60;;;1.87;;
63032;SDS011;49121;38.932;-9.018;2023-03-01T06:16:54;4.60;;;2.20;;
63032;SDS011;49121;38.932;-9.018;2023-03-01T06:18:55;6.45;;;2.20;;
63032;SDS011;49121;38.932;-9.018;2023-03-01T06:20:55;5.90;;;2.22;;
63032;SDS011;49121;38.932;-9.018;2023-03-01T06:22:56;5.72;;;2.47;;
63032;SDS011;49121;38.932;-9.018;2023-03-01T06:24:57;3.88;;;1.77;;
63032;SDS011;49121;38.932;-9.018;2023-03-01T06:26:57;10.48;;;2.85;;
63032;SDS011;49121;38.932;-9.018;2023-03-01T06:28:58;4.63;;;2.45;;
63032;SDS011;49121;38.932;-9.018;2023-03-01T06:30:59;2.20;;;1.63;;
63032;SDS011;49121;38.932;-9.018;2023-03-01T06:32:59;6.55;;;1.92;;
63032;SDS011;49121;38.932;-9.018;2023-03-01T06:35:01;3.72;;;1.50;;
63032;SDS011;49121;38.932;-9.018;2023-03-01T06:37:01;3.08;;;2.05;;
63032;SDS011;49121;38.932;-9.018;2023-03-01T06:39:05;4.35;;;2.10;;
63032;SDS011;49121;38.932;-9.018;2023-03-01T06:41:06;5.53;;;1.88;;
63032;SDS011;49121;38.932;-9.018;2023-03-01T06:43:07;3.35;;;1.70;;
63032;SDS011;49121;38.932;-9.018;2023-03-01T06:45:08;3.53;;;1.50;;
63032;SDS011;49121;38.932;-9.018;2023-03-01T06:47:15;3.97;;;2.05;;
63032;SDS011;49121;38.932;-9.018;2023-03-01T06:49:15;4.47;;;2.08;;
63032;SDS011;49121;38.932;-9.018;2023-03-01T06:51:18;5.35;;;2.47;;
63032;SDS011;49121;38.932;-9.018;2023-03-01T06:53:19;3.40;;;2.15;;
63032;SDS011;49121;38.932;-9.018;2023-03-01T06:55:19;4.72;;;2.40;;
63032;SDS011;49121;38.932;-9.018;2023-03-01T06:57:20;5.25;;;2.13;;
63032;SDS011;49121;38.932;-9.018;2023-03-01T06:59:21;5.70;;;1.83;;
63032;SDS011;49121;38.932;-9.018;2023-03-01T07:01:21;5.55;;;1.92;;
63032;SDS011;49121;38.932;-9.018;2023-03-01T07:03:22;4.97;;;2.30;;
63032;SDS011;49121;38.932;-9.018;2023-03-01T07:05:23;7.13;;;2.75;;
63032;SDS011;49121;38.932;-9.018;2023-03-01T07:07:23;4.43;;;2.05;;
63032;SDS011;49121;38.932;-9.018;2023-03-01T07:09:24;4.47;;;1.90;;
63032;SDS011;49121;38.932;-9.018;2023-03-01T07:11:25;5.07;;;1.98;;
63032;SDS011;49121;38.932;-9.018;2023-03-01T07:13:25;3.33;;;1.92;;
63032;SDS011;49121;38.932;-9.018;2023-03-01T07:15:26;6.60;;;2.60;;
63032;SDS011;49121;38.932;-9.018;2023-03-01T07:17:28;3.90;;;2.10;;
63032;SDS011;49121;38.932;-9.018;2023-03-01T07:19:28;9.02;;;2.83;;
63032;SDS011;49121;38.932;-9.018;2023-03-01T07:21:29;5.05;;;2.25;;
63032;SDS011;49121;38.932;-9.018;2023-03-01T07:23:31;6.35;;;2.78;;
63032;SDS011;49121;38.932;-9.018;2023-03-01T07:25:31;6.47;;;2.45;;
63032;SDS011;49121;38.932;-9.018;2023-03-01T07:27:32;6.70;;;2.42;;
63032;SDS011;49121;38.932;-9.018;2023-03-01T07:29:33;3.90;;;2.28;;
63032;SDS011;49121;38.932;-9.018;2023-03-01T07:31:36;4.00;;;2.03;;
63032;SDS011;49121;38.932;-9.018;2023-03-01T07:33:37;8.10;;;2.30;;
63032;SDS011;49121;38.932;-9.018;2023-03-01T07:35:37;5.20;;;2.58;;
63032;SDS011;49121;38.932;-9.018;2023-03-01T07:37:38;7.22;;;2.25;;
63032;SDS011;49121;38.932;-9.018;2023-03-01T07:39:39;5.00;;;2.00;;
63032;SDS011;49121;38.932;-9.018;2023-03-01T07:41:39;6.85;;;2.38;;
63032;SDS011;49121;38.932;-9.018;2023-03-01T07:43:40;3.90;;;2.05;;
63032;SDS011;49121;38.932;-9.018;2023-03-01T07:45:40;6.28;;;2.78;;
63032;SDS011;49121;38.932;-9.018;2023-03-01T07:47:41;7.07;;;2.00;;
63032;SDS011;49121;38.932;-9.018;2023-03-01T07:49:42;5.57;;;2.83;;
63032;SDS011;49121;38.932;-9.018;2023-03-01T07:51:42;5.15;;;2.75;;
63032;SDS011;49121;38.932;-9.018;2023-03-01T07:53:45;8.38;;;3.45;;
63032;SDS011;49121;38.932;-9.018;2023-03-01T07:55:47;6.20;;;2.70;;
63032;SDS011;49121;38.932;-9.018;2023-03-01T07:57:48;8.40;;;3.08;;
63032;SDS011;49121;38.932;-9.018;2023-03-01T07:59:48;8.27;;;2.60;;
63032;SDS011;49121;38.932;-9.018;2023-03-01T08:01:49;5.25;;;2.72;;
63032;SDS011;49121;38.932;-9.018;2023-03-01T08:03:49;4.13;;;2.55;;
63032;SDS011;49121;38.932;-9.018;2023-03-01T08:05:50;4.57;;;2.65;;
63032;SDS011;49121;38.932;-9.018;2023-03-01T08:07:50;4.28;;;2.50;;
63032;SDS011;49121;38.932;-9.018;2023-03-01T08:09:51;5.60;;;2.45;;
63032;SDS011;49121;38.932;-9.018;2023-03-01T08:11:52;4.45;;;2.33;;
63032;SDS011;49121;38.932;-9.018;2023-03-01T08:13:53;7.07;;;2.70;;
63032;SDS011;49121;38.932;-9.018;2023-03-01T08:15:53;7.93;;;2.60;;
63032;SDS011;49121;38.932;-9.018;2023-03-01T08:17:54;5.75;;;2.17;;
63032;SDS011;49121;38.932;-9.018;2023-03-01T08:19:55;6.55;;;2.78;;
63032;SDS011;49121;38.932;-9.018;2023-03-01T08:21:55;5.90;;;2.92;;
63032;SDS011;49121;38.932;-9.018;2023-03-01T08:23:58;6.25;;;2.50;;
63032;SDS011;49121;38.932;-9.018;2023-03-01T08:26:05;5.47;;;2.20;;
63032;SDS011;49121;38.932;-9.018;2023-03-01T08:28:10;5.28;;;2.65;;
63032;SDS011;49121;38.932;-9.018;2023-03-01T08:30:11;4.28;;;2.65;;
63032;SDS011;49121;38.932;-9.018;2023-03-01T08:32:13;9.88;;;2.33;;
63032;SDS011;49121;38.932;-9.018;2023-03-01T08:34:14;4.80;;;2.47;;
63032;SDS011;49121;38.932;-9.018;2023-03-01T08:36:16;5.47;;;2.60;;
63032;SDS011;49121;38.932;-9.018;2023-03-01T08:38:18;4.43;;;2.20;;
63032;SDS011;49121;38.932;-9.018;2023-03-01T08:40:28;10.83;;;2.37;;
63032;SDS011;49121;38.932;-9.018;2023-03-01T08:42:34;5.20;;;2.15;;
63032;SDS011;49121;38.932;-9.018;2023-03-01T08:44:34;3.03;;;2.08;;
63032;SDS011;49121;38.932;-9.018;2023-03-01T08:50:37;3.97;;;2.20;;
63032;SDS011;49121;38.932;-9.018;2023-03-01T08:54:38;6.00;;;1.70;;
63032;SDS011;49121;38.932;-9.018;2023-03-01T08:58:44;2.73;;;1.80;;
63032;SDS011;49121;38.932;-9.018;2023-03-01T09:00:48;3.38;;;1.73;;
63032;SDS011;49121;38.932;-9.018;2023-03-01T09:04:49;6.10;;;1.67;;
63032;SDS011;49121;38.932;-9.018;2023-03-01T09:08:51;2.83;;;1.40;;
63032;SDS011;49121;38.932;-9.018;2023-03-01T09:12:52;5.03;;;1.55;;
63032;SDS011;49121;38.932;-9.018;2023-03-01T09:16:55;4.82;;;1.45;;
63032;SDS011;49121;38.932;-9.018;2023-03-01T09:21:01;2.57;;;1.70;;
63032;SDS011;49121;38.932;-9.018;2023-03-01T09:23:27;1.67;;;1.10;;
63032;SDS011;49121;38.932;-9.018;2023-03-01T09:25:31;1.88;;;1.30;;
63032;SDS011;49121;38.932;-9.018;2023-03-01T09:27:34;3.20;;;1.65;;
63032;SDS011;49121;38.932;-9.018;2023-03-01T09:29:36;3.63;;;1.60;;
63032;SDS011;49121;38.932;-9.018;2023-03-01T09:31:37;3.65;;;1.50;;
63032;SDS011;49121;38.932;-9.018;2023-03-01T09:33:40;3.53;;;1.60;;
63032;SDS011;49121;38.932;-9.018;2023-03-01T09:35:42;1.35;;;1.13;;
63032;SDS011;49121;38.932;-9.018;2023-03-01T09:37:46;4.53;;;1.10;;
63032;SDS011;49121;38.932;-9.018;2023-03-01T09:39:47;3.17;;;1.42;;
63032;SDS011;49121;38.932;-9.018;2023-03-01T09:44:06;3.13;;;1.60;;
63032;SDS011;49121;38.932;-9.018;2023-03-01T09:46:16;4.03;;;1.30;;
63032;SDS011;49121;38.932;-9.018;2023-03-01T09:48:18;2.13;;;1.00;;
63032;SDS011;49121;38.932;-9.018;2023-03-01T09:50:24;2.75;;;1.15;;
63032;SDS011;49121;38.932;-9.018;2023-03-01T09:52:36;2.80;;;1.60;;
63032;SDS011;49121;38.932;-9.018;2023-03-01T09:55:11;2.42;;;1.23;;
63032;SDS011;49121;38.932;-9.018;2023-03-01T09:57:18;3.05;;;1.60;;
63032;SDS011;49121;38.932;-9.018;2023-03-01T10:09:33;5.97;;;2.05;;
63032;SDS011;49121;38.932;-9.018;2023-03-01T10:11:37;1.90;;;1.30;;
63032;SDS011;49121;38.932;-9.018;2023-03-01T10:15:47;3.90;;;1.50;;
63032;SDS011;49121;38.932;-9.018;2023-03-01T10:17:56;4.07;;;1.80;;
63032;SDS011;49121;38.932;-9.018;2023-03-01T10:24:23;2.83;;;1.23;;
63032;SDS011;49121;38.932;-9.018;2023-03-01T10:26:41;4.95;;;1.20;;
63032;SDS011;49121;38.932;-9.018;2023-03-01T10:31:04;2.88;;;1.38;;
63032;SDS011;49121;38.932;-9.018;2023-03-01T10:33:13;2.72;;;1.35;;
63032;SDS011;49121;38.932;-9.018;2023-03-01T10:35:29;2.38;;;1.45;;
63032;SDS011;49121;38.932;-9.018;2023-03-01T10:37:35;4.18;;;1.75;;
63032;SDS011;49121;38.932;-9.018;2023-03-01T10:42:25;3.00;;;1.80;;
63032;SDS011;49121;38.932;-9.018;2023-03-01T10:46:44;5.72;;;1.80;;
63032;SDS011;49121;38.932;-9.018;2023-03-01T10:49:07;3.65;;;1.25;;
63032;SDS011;49121;38.932;-9.018;2023-03-01T10:51:25;3.80;;;1.52;;
63032;SDS011;49121;38.932;-9.018;2023-03-01T10:55:38;3.15;;;1.60;;
63032;SDS011;49121;38.932;-9.018;2023-03-01T10:57:40;5.85;;;2.70;;
63032;SDS011;49121;38.932;-9.018;2023-03-01T10:59:41;6.35;;;2.28;;
63032;SDS011;49121;38.932;-9.018;2023-03-01T11:01:42;5.15;;;1.67;;
63032;SDS011;49121;38.932;-9.018;2023-03-01T11:03:43;9.77;;;1.90;;
63032;SDS011;49121;38.932;-9.018;2023-03-01T11:05:54;4.50;;;1.88;;
63032;SDS011;49121;38.932;-9.018;2023-03-01T11:08:00;7.05;;;2.10;;
63032;SDS011;49121;38.932;-9.018;2023-03-01T11:10:10;1.80;;;1.58;;
63032;SDS011;49121;38.932;-9.018;2023-03-01T11:12:13;2.72;;;1.77;;
63032;SDS011;49121;38.932;-9.018;2023-03-01T11:14:17;4.47;;;2.03;;
63032;SDS011;49121;38.932;-9.018;2023-03-01T11:16:29;2.78;;;2.00;;
63032;SDS011;49121;38.932;-9.018;2023-03-01T11:18:35;3.83;;;1.80;;
63032;SDS011;49121;38.932;-9.018;2023-03-01T11:20:36;6.25;;;1.85;;
63032;SDS011;49121;38.932;-9.018;2023-03-01T11:22:38;3.65;;;2.00;;
63032;SDS011;49121;38.932;-9.018;2023-03-01T11:24:56;2.95;;;1.88;;
63032;SDS011;49121;38.932;-9.018;2023-03-01T11:26:59;5.35;;;2.40;;
63032;SDS011;49121;38.932;-9.018;2023-03-01T11:29:04;3.80;;;1.80;;
63032;SDS011;49121;38.932;-9.018;2023-03-01T11:31:12;7.75;;;1.80;;
63032;SDS011;49121;38.932;-9.018;2023-03-01T11:33:34;3.95;;;1.88;;
63032;SDS011;49121;38.932;-9.018;2023-03-01T11:36:02;5.55;;;2.08;;
63032;SDS011;49121;38.932;-9.018;2023-03-01T11:38:21;4.65;;;1.85;;
63032;SDS011;49121;38.932;-9.018;2023-03-01T11:42:46;9.13;;;2.30;;
63032;SDS011;49121;38.932;-9.018;2023-03-01T11:44:49;2.92;;;1.70;;
63032;SDS011;49121;38.932;-9.018;2023-03-01T12:01:36;3.75;;;1.50;;
63032;SDS011;49121;38.932;-9.018;2023-03-01T12:06:32;3.55;;;2.10;;
63032;SDS011;49121;38.932;-9.018;2023-03-01T12:16:07;3.58;;;1.88;;
63032;SDS011;49121;38.932;-9.018;2023-03-01T12:25:14;3.33;;;1.67;;
63032;SDS011;49121;38.932;-9.018;2023-03-01T12:30:09;1.77;;;1.38;;
63032;SDS011;49121;38.932;-9.018;2023-03-01T12:34:41;3.47;;;1.60;;
63032;SDS011;49121;38.932;-9.018;2023-03-01T12:39:49;2.80;;;1.60;;
63032;SDS011;49121;38.932;-9.018;2023-03-01T12:49:40;7.45;;;1.90;;
63032;SDS011;49121;38.932;-9.018;2023-03-01T12:51:59;4.75;;;1.95;;
63032;SDS011;49121;38.932;-9.018;2023-03-01T12:54:07;3.33;;;1.70;;
63032;SDS011;49121;38.932;-9.018;2023-03-01T12:56:22;4.32;;;1.42;;
63032;SDS011;49121;38.932;-9.018;2023-03-01T13:06:07;3.97;;;1.40;;
63032;SDS011;49121;38.932;-9.018;2023-03-01T13:10:21;3.65;;;2.13;;
63032;SDS011;49121;38.932;-9.018;2023-03-01T13:14:59;5.05;;;2.10;;
63032;SDS011;49121;38.932;-9.018;2023-03-01T13:17:02;8.25;;;1.75;;
63032;SDS011;49121;38.932;-9.018;2023-03-01T13:21:28;5.32;;;2.10;;
63032;SDS011;49121;38.932;-9.018;2023-03-01T13:23:38;3.65;;;2.22;;
63032;SDS011;49121;38.932;-9.018;2023-03-01T13:32:36;6.32;;;2.20;;
63032;SDS011;49121;38.932;-9.018;2023-03-01T13:34:42;2.85;;;2.28;;
63032;SDS011;49121;38.932;-9.018;2023-03-01T13:36:45;4.22;;;2.15;;
63032;SDS011;49121;38.932;-9.018;2023-03-01T13:38:48;4.40;;;2.50;;
63032;SDS011;49121;38.932;-9.018;2023-03-01T13:40:59;7.80;;;2.10;;
63032;SDS011;49121;38.932;-9.018;2023-03-01T13:43:26;3.40;;;2.00;;
63032;SDS011;49121;38.932;-9.018;2023-03-01T13:45:34;2.90;;;1.80;;
63032;SDS011;49121;38.932;-9.018;2023-03-01T13:50:45;7.85;;;2.20;;
63032;SDS011;49121;38.932;-9.018;2023-03-01T13:52:53;4.57;;;2.00;;
63032;SDS011;49121;38.932;-9.018;2023-03-01T13:55:00;7.05;;;2.25;;
63032;SDS011;49121;38.932;-9.018;2023-03-01T13:57:05;3.63;;;2.00;;
63032;SDS011;49121;38.932;-9.018;2023-03-01T14:01:29;9.02;;;2.03;;
63032;SDS011;49121;38.932;-9.018;2023-03-01T14:03:40;7.28;;;2.50;;
63032;SDS011;49121;38.932;-9.018;2023-03-01T14:05:43;6.47;;;1.90;;
63032;SDS011;49121;38.932;-9.018;2023-03-01T14:07:58;5.20;;;2.20;;
63032;SDS011;49121;38.932;-9.018;2023-03-01T14:16:28;6.03;;;2.00;;
63032;SDS011;49121;38.932;-9.018;2023-03-01T14:21:17;6.10;;;1.85;;
63032;SDS011;49121;38.932;-9.018;2023-03-01T14:25:21;3.78;;;1.70;;
63032;SDS011;49121;38.932;-9.018;2023-03-01T14:27:27;5.40;;;1.85;;
63032;SDS011;49121;38.932;-9.018;2023-03-01T14:29:42;2.70;;;1.52;;
63032;SDS011;49121;38.932;-9.018;2023-03-01T14:31:43;5.35;;;1.90;;
63032;SDS011;49121;38.932;-9.018;2023-03-01T14:36:04;3.50;;;2.00;;
63032;SDS011;49121;38.932;-9.018;2023-03-01T14:38:19;4.18;;;1.70;;
63032;SDS011;49121;38.932;-9.018;2023-03-01T14:40:35;2.60;;;1.67;;
63032;SDS011;49121;38.932;-9.018;2023-03-01T14:42:40;4.18;;;1.77;;
63032;SDS011;49121;38.932;-9.018;2023-03-01T14:46:54;5.80;;;1.60;;
63032;SDS011;49121;38.932;-9.018;2023-03-01T14:48:57;5.85;;;1.67;;
63032;SDS011;49121;38.932;-9.018;2023-03-01T14:51:04;5.53;;;2.08;;
63032;SDS011;49121;38.932;-9.018;2023-03-01T14:53:06;4.88;;;1.70;;
63032;SDS011;49121;38.932;-9.018;2023-03-01T14:55:19;9.57;;;2.38;;
63032;SDS011;49121;38.932;-9.018;2023-03-01T14:57:42;3.20;;;1.70;;